Time;durP1;ratioP1;P1;durP2;ratioP2;P2;SDS_P1;SDS_P2;PMS_P1;PMS_P2;Temp;Humidity;BMP_temperature;BMP_pressure;BME280_temperature;BME280_humidity;BME280_pressure;Samples;Min_cycle;Max_cycle;Signal;HPM_P1;HPM_P2
2022/10/21 00:00:49;;;;;;;19.73;12.07;;;1.80;99.90;;;;;;5113602;28;20058;-74
2022/10/21 00:03:14;;;;;;;19.38;11.65;;;1.70;99.90;;;;;;5113501;28;20077;-75
2022/10/21 00:05:40;;;;;;;25.00;12.38;;;1.80;99.90;;;;;;5114837;28;20495;-72
2022/10/21 00:08:05;;;;;;;22.75;12.75;;;1.80;99.90;;;;;;5104322;28;20061;-73
2022/10/21 00:10:31;;;;;;;20.58;11.82;;;1.70;99.90;;;;;;5093145;28;20028;-72
2022/10/21 00:12:57;;;;;;;21.88;13.05;;;1.70;99.90;;;;;;5094152;28;20040;-75
2022/10/21 00:15:22;;;;;;;28.23;13.88;;;1.70;99.90;;;;;;5094269;28;20468;-72
2022/10/21 00:17:48;;;;;;;22.70;12.15;;;1.60;99.90;;;;;;5092706;28;20024;-72
2022/10/21 00:20:13;;;;;;;27.50;12.45;;;1.60;99.90;;;;;;5092866;28;20435;-72
2022/10/21 00:22:39;;;;;;;25.13;13.30;;;1.60;99.90;;;;;;5094072;28;20028;-72
2022/10/21 00:25:05;;;;;;;24.52;12.50;;;1.50;99.90;;;;;;5105075;28;20401;-74
2022/10/21 00:27:31;;;;;;;22.92;13.90;;;1.50;99.90;;;;;;5113034;28;20044;-75
2022/10/21 00:29:56;;;;;;;27.67;14.32;;;1.50;99.90;;;;;;5114120;28;20098;-72
2022/10/21 00:32:22;;;;;;;20.90;11.88;;;1.50;99.90;;;;;;5113053;28;20020;-75
2022/10/21 00:34:47;;;;;;;20.65;13.20;;;1.50;99.90;;;;;;5112803;28;20118;-75
2022/10/21 00:37:14;;;;;;;22.85;12.43;;;1.50;99.90;;;;;;5114196;28;20024;-75
2022/10/21 00:39:40;;;;;;;30.05;15.73;;;1.50;99.90;;;;;;5113897;28;20055;-72
2022/10/21 00:42:12;;;;;;;28.95;16.42;;;1.50;99.90;;;;;;5114073;28;20031;-74
2022/10/21 00:44:39;;;;;;;27.23;13.93;;;1.50;99.90;;;;;;5114099;28;20023;-72
2022/10/21 00:47:09;;;;;;;22.77;13.50;;;1.50;99.90;;;;;;5114067;28;20039;-72
2022/10/21 00:49:46;;;;;;;27.73;14.45;;;1.40;99.90;;;;;;5113989;28;20027;-75
2022/10/21 00:52:16;;;;;;;26.92;15.52;;;1.40;99.90;;;;;;5114082;28;20028;-72
2022/10/21 00:54:44;;;;;;;26.88;14.38;;;1.40;99.90;;;;;;5113974;28;20073;-72
2022/10/21 00:57:10;;;;;;;25.55;14.32;;;1.30;99.90;;;;;;5113868;28;20028;-75
2022/10/21 00:59:41;;;;;;;22.27;15.30;;;1.40;99.90;;;;;;5113682;28;20473;-75
2022/10/21 01:02:07;;;;;;;28.55;14.68;;;1.40;99.90;;;;;;5109630;28;20023;-73
2022/10/21 01:04:33;;;;;;;24.55;14.35;;;1.30;99.90;;;;;;5091884;28;20031;-75
2022/10/21 01:07:00;;;;;;;26.52;14.63;;;1.40;99.90;;;;;;5093226;28;20028;-72
2022/10/21 01:09:27;;;;;;;30.10;15.10;;;1.30;99.90;;;;;;5093355;28;20027;-72
2022/10/21 01:11:53;;;;;;;24.50;15.48;;;1.40;99.90;;;;;;5093376;28;20028;-72
2022/10/21 01:14:33;;;;;;;29.65;15.77;;;1.30;99.90;;;;;;5093267;28;20039;-75
2022/10/21 01:17:32;;;;;;;26.35;14.65;;;1.40;99.90;;;;;;5093348;28;20028;-72
2022/10/21 01:20:13;;;;;;;29.92;15.70;;;1.40;99.90;;;;;;5091792;28;20024;-72
2022/10/21 01:22:50;;;;;;;24.48;16.75;;;1.40;99.90;;;;;;5093290;28;20474;-72
2022/10/21 01:25:37;;;;;;;25.83;13.68;;;1.40;99.90;;;;;;5106596;28;20019;-72
2022/10/21 01:28:21;;;;;;;40.58;19.00;;;1.40;99.90;;;;;;5113621;28;20103;-72
2022/10/21 01:31:13;;;;;;;24.88;14.00;;;1.30;99.90;;;;;;5113655;28;20074;-74
2022/10/21 01:33:41;;;;;;;35.30;16.85;;;1.20;99.90;;;;;;5112163;28;20036;-75
2022/10/21 01:36:22;;;;;;;196.52;89.65;;;1.20;99.90;;;;;;5113514;28;20016;-75
2022/10/21 01:39:12;;;;;;;137.43;62.58;;;1.20;99.90;;;;;;5117511;28;20141;-72
2022/10/21 01:41:40;;;;;;;33.80;15.68;;;1.20;99.90;;;;;;5116165;28;20070;-73
2022/10/21 01:44:19;;;;;;;26.50;14.80;;;1.20;99.90;;;;;;5117466;28;20039;-74
2022/10/21 01:47:10;;;;;;;26.02;14.80;;;1.10;99.90;;;;;;5116207;28;20026;-75
2022/10/21 01:49:43;;;;;;;25.63;15.02;;;1.10;99.90;;;;;;5117470;28;20027;-72
2022/10/21 01:52:10;;;;;;;24.80;14.32;;;1.10;99.90;;;;;;5092453;28;20504;-72
2022/10/21 01:54:43;;;;;;;26.27;13.88;;;1.10;99.90;;;;;;5076522;28;20040;-72
2022/10/21 01:57:11;;;;;;;24.88;12.70;;;1.10;99.90;;;;;;5076667;28;20017;-75
2022/10/21 01:59:38;;;;;;;27.25;14.20;;;1.10;99.90;;;;;;5081018;28;20012;-75
2022/10/21 02:02:06;;;;;;;30.92;16.83;;;1.10;99.90;;;;;;5098495;28;20050;-75
2022/10/21 02:04:34;;;;;;;36.10;17.92;;;1.20;99.90;;;;;;5117118;27;20031;-75
2022/10/21 02:07:00;;;;;;;38.08;20.00;;;1.20;99.90;;;;;;5113961;28;20061;-75
2022/10/21 02:09:26;;;;;;;29.70;17.55;;;1.20;99.90;;;;;;5095337;28;20031;-72
2022/10/21 02:11:55;;;;;;;36.78;20.30;;;1.30;99.90;;;;;;5095293;28;20020;-72
2022/10/21 02:14:35;;;;;;;39.45;22.58;;;1.30;99.90;;;;;;5096394;28;20067;-75
2022/10/21 02:17:01;;;;;;;33.47;15.63;;;1.30;99.90;;;;;;5096466;28;20043;-72
2022/10/21 02:19:27;;;;;;;28.55;16.15;;;1.30;99.90;;;;;;5096389;28;20028;-72
2022/10/21 02:21:56;;;;;;;30.33;16.20;;;1.30;99.90;;;;;;5096231;28;20032;-74
2022/10/21 02:24:50;;;;;;;31.20;14.45;;;1.30;99.90;;;;;;5101099;28;20023;-72
2022/10/21 02:27:16;;;;;;;26.73;16.08;;;1.30;99.90;;;;;;5116495;28;20034;-73
2022/10/21 02:29:45;;;;;;;29.90;15.45;;;1.40;99.90;;;;;;5116721;28;20024;-73
2022/10/21 02:32:31;;;;;;;29.48;15.85;;;1.40;99.90;;;;;;5116393;28;20081;-74
2022/10/21 02:35:23;;;;;;;28.58;16.98;;;1.40;99.90;;;;;;5075934;28;20032;-75
2022/10/21 02:38:25;;;;;;;26.73;15.07;;;1.40;99.90;;;;;;5075545;28;20459;-75
2022/10/21 02:41:12;;;;;;;32.58;16.65;;;1.40;99.90;;;;;;5053242;28;20075;-75
2022/10/21 02:43:42;;;;;;;30.58;16.00;;;1.40;99.90;;;;;;5075795;28;20060;-75
2022/10/21 02:46:11;;;;;;;27.17;15.52;;;1.40;99.90;;;;;;5103544;28;20042;-75
2022/10/21 02:48:38;;;;;;;30.98;16.27;;;1.40;99.90;;;;;;5116018;28;20047;-75
2022/10/21 02:51:06;;;;;;;29.48;16.00;;;1.40;99.90;;;;;;5116093;27;20030;-72
2022/10/21 02:53:33;;;;;;;28.52;17.00;;;1.40;99.90;;;;;;5116257;27;20032;-73
2022/10/21 02:55:58;;;;;;;25.73;15.23;;;1.30;99.90;;;;;;5116151;28;20024;-72
2022/10/21 02:58:25;;;;;;;25.65;15.40;;;1.30;99.90;;;;;;5114623;28;20491;-75
2022/10/21 03:00:50;;;;;;;27.70;15.98;;;1.30;99.90;;;;;;5116020;27;20023;-72
2022/10/21 03:03:16;;;;;;;29.85;16.17;;;1.30;99.90;;;;;;5114708;28;20020;-75
2022/10/21 03:05:42;;;;;;;33.45;16.23;;;1.20;99.90;;;;;;5114708;28;20031;-73
2022/10/21 03:08:07;;;;;;;28.90;16.67;;;1.20;99.90;;;;;;5102955;28;20107;-75
2022/10/21 03:10:33;;;;;;;25.92;15.68;;;1.20;99.90;;;;;;5095462;28;20504;-72
2022/10/21 03:12:59;;;;;;;32.20;18.30;;;1.20;99.90;;;;;;5095309;28;20100;-74
2022/10/21 03:15:25;;;;;;;33.55;18.58;;;1.20;99.90;;;;;;5093961;28;20013;-74
2022/10/21 03:17:50;;;;;;;30.77;17.30;;;1.20;99.90;;;;;;5095338;28;20024;-75
2022/10/21 03:20:16;;;;;;;31.83;15.60;;;1.20;99.90;;;;;;5095139;28;20485;-75
2022/10/21 03:22:43;;;;;;;31.55;16.75;;;1.20;99.90;;;;;;5095190;28;20012;-75
2022/10/21 03:25:09;;;;;;;33.53;16.50;;;1.10;99.90;;;;;;5108283;28;20064;-75
2022/10/21 03:27:35;;;;;;;31.05;15.88;;;1.10;99.90;;;;;;5114203;28;20020;-73
2022/10/21 03:30:00;;;;;;;23.80;15.82;;;1.10;99.90;;;;;;5115642;28;20519;-73
2022/10/21 03:32:26;;;;;;;25.83;14.30;;;1.10;99.90;;;;;;5115314;28;20023;-75
2022/10/21 03:34:52;;;;;;;28.42;15.95;;;1.00;99.90;;;;;;5096955;28;20063;-72
2022/10/21 03:37:17;;;;;;;26.20;14.40;;;1.00;99.90;;;;;;5094975;28;20095;-72
2022/10/21 03:39:43;;;;;;;29.55;15.25;;;1.10;99.90;;;;;;5094718;28;20048;-74
2022/10/21 03:42:08;;;;;;;29.63;15.50;;;1.10;99.90;;;;;;5093642;28;20046;-75
2022/10/21 03:44:34;;;;;;;31.40;15.60;;;1.10;99.90;;;;;;5094718;28;20028;-75
2022/10/21 03:46:59;;;;;;;28.55;16.13;;;1.10;99.90;;;;;;5094762;28;20021;-73
2022/10/21 03:49:25;;;;;;;27.73;16.50;;;1.10;99.90;;;;;;5094678;28;20031;-72
2022/10/21 03:51:51;;;;;;;31.05;15.10;;;1.10;99.90;;;;;;5094488;28;20554;-75
2022/10/21 03:54:16;;;;;;;30.00;16.88;;;1.10;99.90;;;;;;5093240;28;20043;-73
2022/10/21 03:56:42;;;;;;;30.83;15.70;;;1.00;99.90;;;;;;5094459;28;20488;-72
2022/10/21 03:59:08;;;;;;;30.73;16.38;;;1.10;99.90;;;;;;5094029;28;20066;-75
2022/10/21 04:01:33;;;;;;;28.15;15.70;;;1.10;99.90;;;;;;5094333;28;20030;-75
2022/10/21 04:03:59;;;;;;;31.10;16.35;;;1.00;99.90;;;;;;5094302;28;20107;-72
2022/10/21 04:06:24;;;;;;;34.42;16.40;;;1.00;99.90;;;;;;5094300;28;20059;-75
2022/10/21 04:08:50;;;;;;;35.05;16.08;;;1.00;99.90;;;;;;5094505;28;20020;-72
2022/10/21 04:11:16;;;;;;;25.92;15.32;;;1.10;99.90;;;;;;5094222;28;20073;-74
2022/10/21 04:13:41;;;;;;;27.27;15.70;;;1.10;99.90;;;;;;5094144;28;20421;-75
2022/10/21 04:16:13;;;;;;;33.80;17.13;;;1.10;99.90;;;;;;5094212;28;20469;-73
2022/10/21 04:18:39;;;;;;;28.13;14.87;;;1.10;99.90;;;;;;5093974;28;20027;-73
2022/10/21 04:21:05;;;;;;;27.55;16.40;;;1.00;99.90;;;;;;5094133;28;20032;-75
2022/10/21 04:23:30;;;;;;;29.67;16.42;;;1.00;99.90;;;;;;5094101;28;20065;-73
2022/10/21 04:25:56;;;;;;;25.80;14.70;;;1.00;99.90;;;;;;5113932;28;20027;-75
2022/10/21 04:28:21;;;;;;;29.08;16.98;;;0.90;99.90;;;;;;5114268;28;20073;-75
2022/10/21 04:30:49;;;;;;;27.67;16.00;;;0.80;99.90;;;;;;5113111;28;20093;-74
2022/10/21 04:33:14;;;;;;;23.83;14.30;;;0.80;99.90;;;;;;5110713;28;20044;-75
2022/10/21 04:35:40;;;;;;;32.47;14.52;;;0.70;99.90;;;;;;5092370;28;20031;-76
2022/10/21 04:38:06;;;;;;;29.63;13.52;;;0.70;99.90;;;;;;5093361;28;20125;-73
2022/10/21 04:40:31;;;;;;;32.95;15.02;;;0.60;99.90;;;;;;5092803;28;20493;-74
2022/10/21 04:42:57;;;;;;;31.30;14.90;;;0.60;99.90;;;;;;5093060;28;20031;-76
2022/10/21 04:45:22;;;;;;;28.13;13.95;;;0.60;99.90;;;;;;5094029;28;20043;-72
2022/10/21 04:47:48;;;;;;;29.80;16.55;;;0.60;99.90;;;;;;5112612;28;20102;-73
2022/10/21 04:50:14;;;;;;;25.10;14.60;;;0.60;99.90;;;;;;5114013;28;20040;-76
2022/10/21 04:52:39;;;;;;;27.52;13.75;;;0.60;99.90;;;;;;5113862;28;20027;-76
2022/10/21 04:55:05;;;;;;;24.45;14.70;;;0.60;99.90;;;;;;5112652;28;20031;-73
2022/10/21 04:57:31;;;;;;;30.80;14.10;;;0.50;99.90;;;;;;5112486;28;20012;-73
2022/10/21 04:59:57;;;;;;;21.70;13.57;;;0.40;99.90;;;;;;5113878;28;20023;-73
2022/10/21 05:02:23;;;;;;;28.13;15.27;;;0.40;99.90;;;;;;5113715;28;20019;-75
2022/10/21 05:04:49;;;;;;;24.45;15.68;;;0.40;99.90;;;;;;5112422;28;20019;-73
2022/10/21 05:07:15;;;;;;;22.55;13.10;;;0.40;99.90;;;;;;5104464;28;20024;-76
2022/10/21 05:09:40;;;;;;;27.10;13.95;;;0.30;99.90;;;;;;5093119;28;20058;-73
2022/10/21 05:12:06;;;;;;;32.28;16.02;;;0.30;99.90;;;;;;5092787;28;20419;-72
2022/10/21 05:14:31;;;;;;;27.95;15.23;;;0.30;99.90;;;;;;5092926;28;20053;-72
2022/10/21 05:16:57;;;;;;;25.13;13.80;;;0.30;99.90;;;;;;5093142;28;20139;-73
2022/10/21 05:19:23;;;;;;;21.65;12.68;;;0.20;99.90;;;;;;5092666;28;20095;-74
2022/10/21 05:21:48;;;;;;;28.17;14.05;;;0.20;99.90;;;;;;5093165;28;20498;-73
2022/10/21 05:24:14;;;;;;;28.10;13.40;;;0.20;99.90;;;;;;5085952;27;20024;-76
2022/10/21 05:26:40;;;;;;;24.80;13.43;;;0.20;99.90;;;;;;5096897;28;20527;-76
2022/10/21 05:29:06;;;;;;;27.58;13.95;;;0.20;99.90;;;;;;5110730;28;20027;-75
2022/10/21 05:31:31;;;;;;;25.13;13.95;;;0.20;99.90;;;;;;5089252;28;20021;-76
2022/10/21 05:33:57;;;;;;;23.33;13.45;;;0.30;99.90;;;;;;5105687;28;20087;-75
2022/10/21 05:36:22;;;;;;;25.17;15.77;;;0.30;99.90;;;;;;5112397;27;20036;-75
2022/10/21 05:38:48;;;;;;;23.90;13.85;;;0.30;99.90;;;;;;5111946;28;20024;-75
2022/10/21 05:41:15;;;;;;;24.55;13.82;;;0.40;99.90;;;;;;5108209;27;20042;-75
2022/10/21 05:43:40;;;;;;;22.65;13.30;;;0.40;99.90;;;;;;5109417;28;20016;-73
2022/10/21 05:46:07;;;;;;;27.52;14.18;;;0.40;99.90;;;;;;5096390;28;20058;-75
2022/10/21 05:48:34;;;;;;;24.67;14.02;;;0.40;99.90;;;;;;5091422;28;20073;-75
2022/10/21 05:50:59;;;;;;;23.80;13.57;;;0.40;99.90;;;;;;5092827;28;20027;-72
2022/10/21 05:53:25;;;;;;;29.70;15.30;;;0.40;99.90;;;;;;5092448;28;20032;-76
2022/10/21 05:56:05;;;;;;;27.73;14.18;;;0.40;99.90;;;;;;5102457;28;20056;-72
2022/10/21 05:58:32;;;;;;;26.02;13.48;;;0.50;99.90;;;;;;5092729;28;20024;-76
2022/10/21 06:00:59;;;;;;;27.55;13.77;;;0.50;99.90;;;;;;5091773;28;20077;-76
2022/10/21 06:03:28;;;;;;;27.83;13.57;;;0.50;99.90;;;;;;5091891;28;20089;-76
2022/10/21 06:05:55;;;;;;;28.20;14.63;;;0.60;99.90;;;;;;5091419;28;20024;-75
2022/10/21 06:08:21;;;;;;;25.42;16.10;;;0.80;99.90;;;;;;5089603;28;20072;-76
2022/10/21 06:10:47;;;;;;;28.83;14.25;;;0.80;99.90;;;;;;5090673;28;20050;-72
2022/10/21 06:13:12;;;;;;;23.85;14.65;;;0.90;99.90;;;;;;5099552;28;20473;-72
2022/10/21 06:15:38;;;;;;;23.05;12.98;;;0.90;99.90;;;;;;5111522;28;20034;-75
2022/10/21 06:18:04;;;;;;;23.42;13.02;;;0.90;99.90;;;;;;5113325;28;20019;-72
2022/10/21 06:20:29;;;;;;;22.95;13.23;;;1.00;99.90;;;;;;5113163;28;20500;-72
2022/10/21 06:22:57;;;;;;;29.48;15.95;;;1.10;99.90;;;;;;5100662;28;20030;-73
2022/10/21 06:25:23;;;;;;;33.72;17.33;;;1.10;99.90;;;;;;5108958;28;20023;-72
2022/10/21 06:27:48;;;;;;;57.17;23.55;;;1.10;99.90;;;;;;5114872;28;20030;-76
2022/10/21 06:30:14;;;;;;;53.08;23.25;;;1.20;99.90;;;;;;5095127;28;20016;-76
2022/10/21 06:32:39;;;;;;;57.95;29.23;;;1.30;99.90;;;;;;5089596;28;20050;-73
2022/10/21 06:35:05;;;;;;;53.03;26.27;;;1.30;99.90;;;;;;5093351;28;20056;-72
2022/10/21 06:37:31;;;;;;;55.75;25.38;;;1.40;99.90;;;;;;5094844;28;20028;-72
2022/10/21 06:39:56;;;;;;;59.78;27.30;;;1.50;99.90;;;;;;5095652;28;20113;-75
2022/10/21 06:42:22;;;;;;;64.53;32.55;;;1.50;99.90;;;;;;5095021;28;20021;-75
2022/10/21 06:44:47;;;;;;;79.22;40.90;;;1.70;99.90;;;;;;5095996;28;20020;-72
2022/10/21 06:47:13;;;;;;;69.13;37.70;;;1.70;99.90;;;;;;5094771;28;20043;-76
2022/10/21 06:49:38;;;;;;;56.33;32.60;;;1.80;99.90;;;;;;5108024;28;20023;-76
2022/10/21 06:52:04;;;;;;;45.70;25.23;;;2.00;99.90;;;;;;5115100;28;20020;-76
2022/10/21 06:54:30;;;;;;;36.83;21.40;;;2.00;99.90;;;;;;5114973;28;20042;-76
2022/10/21 06:56:56;;;;;;;55.45;28.10;;;2.10;99.90;;;;;;5116304;28;20030;-76
2022/10/21 06:59:21;;;;;;;51.75;27.23;;;2.20;99.90;;;;;;5097573;28;20020;-75
2022/10/21 07:01:47;;;;;;;44.55;22.00;;;2.20;99.90;;;;;;5094640;28;20031;-76
2022/10/21 07:04:12;;;;;;;39.35;21.77;;;2.30;99.90;;;;;;5099356;28;20026;-72
2022/10/21 07:06:38;;;;;;;39.53;20.13;;;2.30;99.90;;;;;;5115722;28;20101;-72
2022/10/21 07:09:05;;;;;;;41.40;21.42;;;2.40;99.90;;;;;;5095700;28;20028;-72
2022/10/21 07:11:31;;;;;;;34.53;19.35;;;2.50;99.90;;;;;;5095628;28;20020;-76
2022/10/21 07:13:59;;;;;;;41.60;19.88;;;2.60;99.90;;;;;;5094262;28;20439;-75
2022/10/21 07:16:29;;;;;;;59.78;28.08;;;2.80;99.90;;;;;;5102305;28;20023;-75
2022/10/21 07:18:55;;;;;;;59.97;27.42;;;3.00;99.90;;;;;;5115958;28;20020;-76
2022/10/21 07:21:23;;;;;;;64.47;27.60;;;3.30;99.90;;;;;;5115869;28;20019;-71
2022/10/21 07:23:50;;;;;;;58.15;27.95;;;3.50;99.90;;;;;;5112617;28;20020;-76
2022/10/21 07:26:17;;;;;;;65.63;32.15;;;3.70;99.90;;;;;;5109174;28;20038;-72
2022/10/21 07:28:46;;;;;;;64.65;33.92;;;3.90;99.90;;;;;;5115645;28;20481;-72
2022/10/21 07:31:17;;;;;;;54.90;28.25;;;4.10;99.90;;;;;;5115244;28;20027;-72
2022/10/21 07:33:43;;;;;;;57.22;28.88;;;4.40;99.90;;;;;;5112363;28;20076;-77
2022/10/21 07:36:19;;;;;;;51.22;27.55;;;4.70;99.90;;;;;;5095098;28;20113;-71
2022/10/21 07:38:46;;;;;;;44.95;23.17;;;5.00;99.90;;;;;;5093823;28;20073;-76
2022/10/21 07:41:20;;;;;;;35.78;20.55;;;5.30;99.90;;;;;;5094852;28;20044;-76
2022/10/21 07:43:47;;;;;;;30.60;18.48;;;5.60;99.90;;;;;;5104807;28;20106;-72
2022/10/21 07:46:12;;;;;;;28.38;16.50;;;5.90;99.90;;;;;;5113957;28;20037;-71
2022/10/21 07:48:38;;;;;;;28.27;14.65;;;6.20;99.90;;;;;;5115423;28;20028;-76
2022/10/21 07:51:07;;;;;;;40.85;20.45;;;6.60;99.90;;;;;;5113931;28;20019;-71
2022/10/21 07:53:33;;;;;;;84.47;38.15;;;6.80;99.90;;;;;;5098808;28;20029;-76
2022/10/21 07:56:12;;;;;;;71.15;32.45;;;7.00;99.90;;;;;;5093391;28;20031;-71
2022/10/21 07:58:38;;;;;;;57.08;28.20;;;7.10;99.90;;;;;;5094829;28;20028;-76
2022/10/21 08:01:06;;;;;;;47.90;24.77;;;7.20;99.90;;;;;;5094718;28;20063;-75
2022/10/21 08:03:32;;;;;;;38.90;20.73;;;7.30;99.90;;;;;;5093499;28;20111;-71
2022/10/21 08:05:58;;;;;;;32.28;18.00;;;7.40;99.90;;;;;;5112881;28;20560;-75
2022/10/21 08:08:25;;;;;;;27.60;15.55;;;7.50;99.90;;;;;;5098143;28;20024;-72
2022/10/21 08:10:52;;;;;;;35.20;14.82;;;7.60;99.90;;;;;;5094364;28;20031;-72
2022/10/21 08:13:18;;;;;;;24.30;13.32;;;7.70;99.90;;;;;;5093168;28;20020;-71
2022/10/21 08:15:45;;;;;;;21.83;12.88;;;7.80;99.90;;;;;;5095168;28;20093;-76
2022/10/21 08:18:11;;;;;;;17.08;10.38;;;7.90;99.90;;;;;;5114713;28;20103;-71
2022/10/21 08:20:42;;;;;;;16.70;8.57;;;8.00;99.90;;;;;;5114636;28;20389;-76
2022/10/21 08:23:08;;;;;;;13.43;8.85;;;8.00;99.90;;;;;;5113268;28;20045;-76
2022/10/21 08:25:34;;;;;;;13.32;7.72;;;8.10;99.90;;;;;;5096139;28;20047;-71
2022/10/21 08:28:00;;;;;;;19.55;10.93;;;8.20;99.90;;;;;;5097326;28;20012;-76
2022/10/21 08:30:30;;;;;;;16.92;10.23;;;8.30;99.90;;;;;;5114424;28;20035;-76
2022/10/21 08:33:00;;;;;;;17.85;10.02;;;8.40;99.90;;;;;;5114898;28;20020;-76
2022/10/21 08:35:26;;;;;;;16.25;10.35;;;8.60;99.90;;;;;;5112958;28;20440;-76
2022/10/21 08:37:52;;;;;;;29.17;14.10;;;8.70;98.10;;;;;;5114458;28;20116;-71
2022/10/21 08:40:19;;;;;;;24.88;12.65;;;8.90;97.10;;;;;;5107175;28;20040;-71
2022/10/21 08:42:45;;;;;;;16.98;9.95;;;9.00;95.70;;;;;;5094010;28;20091;-72
2022/10/21 08:45:34;;;;;;;19.85;9.88;;;9.10;94.60;;;;;;5093679;28;20533;-71
2022/10/21 08:48:03;;;;;;;15.80;9.63;;;9.10;92.70;;;;;;5092570;28;20470;-76
2022/10/21 08:50:35;;;;;;;18.88;10.57;;;9.20;90.50;;;;;;5108032;28;20046;-76
2022/10/21 08:53:09;;;;;;;22.13;11.80;;;9.40;90.30;;;;;;5112964;28;20416;-71
2022/10/21 08:55:41;;;;;;;66.40;26.35;;;9.50;89.70;;;;;;5114141;28;20386;-72
2022/10/21 08:58:16;;;;;;;23.88;13.70;;;9.60;90.90;;;;;;5109938;28;20416;-72
2022/10/21 09:01:01;;;;;;;15.85;9.82;;;9.60;87.90;;;;;;5093674;28;20031;-71
2022/10/21 09:03:37;;;;;;;13.35;8.95;;;9.60;86.80;;;;;;5093818;28;20085;-77
2022/10/21 09:06:06;;;;;;;11.55;7.95;;;9.70;86.50;;;;;;5093491;28;20083;-76
2022/10/21 09:08:42;;;;;;;10.25;7.03;;;9.70;84.80;;;;;;5093713;28;20481;-76
2022/10/21 09:11:08;;;;;;;13.23;7.55;;;9.70;84.60;;;;;;5093595;28;20048;-71
2022/10/21 09:13:52;;;;;;;10.27;6.95;;;9.80;84.60;;;;;;5093564;28;20434;-76
2022/10/21 09:16:26;;;;;;;10.65;7.28;;;9.90;84.90;;;;;;5093647;28;20024;-76
2022/10/21 09:19:23;;;;;;;10.98;6.95;;;9.90;82.90;;;;;;5093668;28;20028;-76
2022/10/21 09:22:07;;;;;;;11.90;7.57;;;10.00;82.50;;;;;;5093461;28;20534;-76
2022/10/21 09:24:54;;;;;;;13.70;7.93;;;10.00;80.50;;;;;;5103406;28;20024;-76
2022/10/21 09:27:20;;;;;;;10.00;6.85;;;10.10;79.70;;;;;;5073317;28;20039;-76
2022/10/21 09:29:55;;;;;;;14.05;7.85;;;10.10;80.60;;;;;;5071969;28;20031;-76
2022/10/21 09:32:30;;;;;;;14.10;8.07;;;10.10;81.80;;;;;;5080656;28;20465;-71
2022/10/21 09:35:22;;;;;;;15.98;8.02;;;10.20;82.80;;;;;;5113476;28;20106;-75
2022/10/21 09:37:54;;;;;;;14.85;8.27;;;10.20;81.10;;;;;;5113835;28;20465;-71
2022/10/21 09:40:22;;;;;;;24.60;11.13;;;10.30;81.40;;;;;;5112347;28;20079;-70
2022/10/21 09:42:50;;;;;;;12.68;7.70;;;10.30;81.60;;;;;;5111988;28;20037;-76
2022/10/21 09:45:35;;;;;;;12.85;8.18;;;10.30;81.80;;;;;;5091939;28;20027;-76
2022/10/21 09:48:16;;;;;;;17.88;11.60;;;10.30;81.90;;;;;;5093320;28;20091;-76
2022/10/21 09:50:43;;;;;;;14.35;8.82;;;10.30;80.30;;;;;;5093236;28;20024;-71
2022/10/21 09:53:47;;;;;;;11.75;8.15;;;10.30;80.30;;;;;;5091767;28;20025;-71
2022/10/21 09:56:18;;;;;;;10.70;6.35;;;10.20;81.20;;;;;;5077768;28;20048;-76
2022/10/21 09:59:02;;;;;;;9.90;6.25;;;10.20;81.50;;;;;;5096992;28;20031;-77
2022/10/21 10:01:28;;;;;;;9.10;6.10;;;10.20;82.30;;;;;;5097012;28;20028;-71
2022/10/21 10:03:54;;;;;;;10.77;5.75;;;10.20;82.30;;;;;;5099293;28;20021;-71
2022/10/21 10:06:35;;;;;;;15.15;5.10;;;10.20;82.40;;;;;;5115963;28;20049;-71
2022/10/21 10:09:14;;;;;;;11.00;6.43;;;10.30;83.60;;;;;;5076649;28;20478;-71
2022/10/21 10:11:52;;;;;;;8.00;5.53;;;10.30;83.00;;;;;;5076533;28;20467;-71
2022/10/21 10:14:35;;;;;;;8.63;5.63;;;10.40;84.40;;;;;;5104625;28;20027;-76
2022/10/21 10:17:24;;;;;;;6.65;5.20;;;10.50;84.80;;;;;;5117071;28;20020;-77
2022/10/21 10:20:07;;;;;;;10.60;5.80;;;10.50;84.10;;;;;;5117116;28;20106;-76
2022/10/21 10:22:44;;;;;;;10.65;5.18;;;10.50;85.20;;;;;;5107766;28;20016;-71
2022/10/21 10:25:23;;;;;;;6.10;5.20;;;10.50;85.40;;;;;;5111864;28;20032;-77
2022/10/21 10:27:58;;;;;;;36.65;6.47;;;10.50;84.20;;;;;;5115579;28;20115;-76
2022/10/21 10:30:28;;;;;;;10.63;5.75;;;10.50;83.30;;;;;;5115569;28;20077;-71
2022/10/21 10:32:55;;;;;;;10.07;6.57;;;10.50;84.30;;;;;;5094828;27;20051;-77
2022/10/21 10:35:28;;;;;;;10.38;5.85;;;10.50;84.50;;;;;;5109940;28;20032;-77
2022/10/21 10:37:57;;;;;;;10.35;6.45;;;10.60;85.10;;;;;;5114908;28;20097;-76
2022/10/21 10:40:31;;;;;;;9.80;5.88;;;10.60;84.20;;;;;;5107638;28;20558;-77
2022/10/21 10:43:10;;;;;;;11.55;6.40;;;10.70;84.60;;;;;;5108566;28;20035;-71
2022/10/21 10:45:36;;;;;;;9.63;5.22;;;10.80;85.20;;;;;;5113821;28;20116;-71
2022/10/21 10:48:02;;;;;;;9.98;6.18;;;10.80;83.60;;;;;;5108161;28;20123;-77
2022/10/21 10:50:41;;;;;;;10.63;6.10;;;10.90;81.50;;;;;;5088119;28;20028;-72
2022/10/21 10:53:24;;;;;;;13.63;7.22;;;10.90;81.80;;;;;;5114663;28;20046;-71
2022/10/21 10:55:56;;;;;;;;;;;10.90;77.70;;;;;;5115432;28;20053;-71
2022/10/21 10:58:25;;;;;;;10.60;5.75;;;10.90;76.80;;;;;;5114070;28;19908;-71
2022/10/21 11:00:54;;;;;;;6.10;4.90;;;10.90;74.20;;;;;;5114822;28;20019;-69
2022/10/21 11:03:32;;;;;;;8.40;5.65;;;10.90;74.70;;;;;;5114361;27;20043;-69
2022/10/21 11:06:11;;;;;;;8.45;5.20;;;11.00;75.20;;;;;;5105135;27;20044;-69
2022/10/21 11:08:45;;;;;;;9.30;4.75;;;11.00;75.20;;;;;;5106446;27;20035;-69
2022/10/21 11:11:18;;;;;;;6.90;4.75;;;11.00;72.40;;;;;;5114845;28;20536;-69
2022/10/21 11:13:44;;;;;;;12.02;5.35;;;11.20;73.70;;;;;;5112082;28;20412;-69
2022/10/21 11:16:35;;;;;;;8.48;5.53;;;11.20;73.90;;;;;;5114748;28;20024;-69
2022/10/21 11:19:03;;;;;;;13.90;5.35;;;11.20;74.10;;;;;;5109068;28;20035;-68
2022/10/21 11:21:35;;;;;;;7.97;4.93;;;11.20;71.90;;;;;;5109681;27;20508;-74
2022/10/21 11:24:05;;;;;;;10.20;5.03;;;11.20;70.70;;;;;;5109134;28;20036;-69
2022/10/21 11:27:18;;;;;;;7.30;5.15;;;11.20;70.00;;;;;;5114365;28;20045;-69
2022/10/21 11:29:50;;;;;;;5.70;4.22;;;11.20;67.80;;;;;;5095086;28;20072;-74
2022/10/21 11:32:34;;;;;;;6.65;4.43;;;11.20;67.90;;;;;;5096213;28;20029;-75
2022/10/21 11:35:26;;;;;;;6.85;5.25;;;11.30;69.60;;;;;;5104723;28;20043;-75
2022/10/21 11:37:59;;;;;;;7.57;5.27;;;11.40;71.50;;;;;;5106360;28;20752;-74
2022/10/21 11:40:53;;;;;;;10.20;5.18;;;11.40;72.40;;;;;;5099869;28;20473;-74
2022/10/21 11:43:30;;;;;;;8.98;5.55;;;11.40;71.90;;;;;;5097949;27;20032;-75
2022/10/21 11:46:23;;;;;;;6.93;4.72;;;11.40;70.20;;;;;;5101577;28;20020;-74
2022/10/21 11:49:00;;;;;;;6.18;4.78;;;11.40;69.50;;;;;;5094513;28;20051;-75
2022/10/21 11:51:57;;;;;;;8.45;4.95;;;11.40;69.00;;;;;;5093315;28;20020;-75
2022/10/21 11:54:43;;;;;;;4.88;4.38;;;11.40;68.40;;;;;;5111901;28;20043;-75
2022/10/21 11:57:12;;;;;;;5.47;4.88;;;11.50;68.50;;;;;;5113231;28;20085;-75
2022/10/21 11:59:57;;;;;;;5.05;4.43;;;11.60;69.10;;;;;;5113156;27;20035;-75
2022/10/21 12:02:24;;;;;;;6.70;4.97;;;11.60;68.30;;;;;;5106319;28;20508;-75
2022/10/21 12:05:13;;;;;;;6.55;4.88;;;11.60;66.80;;;;;;5113205;28;20389;-75
2022/10/21 12:07:57;;;;;;;8.55;4.50;;;11.60;66.60;;;;;;5108198;28;20024;-75
2022/10/21 12:10:46;;;;;;;6.90;4.70;;;11.70;67.00;;;;;;5108991;28;20016;-75
2022/10/21 12:13:23;;;;;;;11.10;5.18;;;11.70;67.10;;;;;;5113022;28;20035;-70
2022/10/21 12:15:54;;;;;;;6.88;4.38;;;11.70;66.10;;;;;;5112006;28;20119;-70
2022/10/21 12:18:22;;;;;;;9.25;5.03;;;11.70;64.80;;;;;;5108737;27;20034;-75
2022/10/21 12:20:51;;;;;;;7.85;5.15;;;11.60;66.40;;;;;;5110709;27;20036;-75
2022/10/21 12:23:23;;;;;;;7.35;4.63;;;11.60;67.20;;;;;;5107114;28;20029;-75
2022/10/21 12:26:17;;;;;;;6.35;4.65;;;11.60;67.40;;;;;;5093291;28;20492;-75
2022/10/21 12:29:11;;;;;;;9.77;4.97;;;11.50;68.20;;;;;;5092759;28;20060;-75
2022/10/21 12:31:59;;;;;;;9.60;5.13;;;11.50;68.60;;;;;;5095148;28;20023;-75
2022/10/21 12:34:25;;;;;;;6.47;4.35;;;11.50;69.10;;;;;;5094893;28;20048;-75
2022/10/21 12:36:53;;;;;;;7.45;5.07;;;11.40;68.60;;;;;;5097248;28;20030;-75
2022/10/21 12:39:34;;;;;;;8.73;4.93;;;11.50;68.80;;;;;;5093088;27;20055;-70
2022/10/21 12:42:26;;;;;;;7.60;5.40;;;11.50;68.50;;;;;;5091271;28;20385;-70
2022/10/21 12:44:52;;;;;;;6.78;4.90;;;11.50;68.70;;;;;;5090305;27;20035;-75
2022/10/21 12:47:23;;;;;;;9.68;4.80;;;11.50;69.30;;;;;;5092669;28;20428;-75
2022/10/21 12:50:06;;;;;;;6.97;4.90;;;11.50;69.40;;;;;;5096696;28;20127;-74
2022/10/21 12:52:37;;;;;;;10.35;5.80;;;11.50;69.60;;;;;;5092337;28;20488;-75
2022/10/21 12:55:07;;;;;;;9.50;6.03;;;11.50;69.90;;;;;;5092807;27;20040;-70
2022/10/21 12:57:36;;;;;;;10.43;6.10;;;11.50;70.70;;;;;;5093354;28;20102;-70